Latest Coastal Weather Observations for Stenhouse Bay

IDS60701

Issued at 10:25 am CDT Wednesday 22 October 2014 (issued every 10 minutes, with the page automatically refreshed every 10 minutes)

About coastal observations | Map of coastal stations | Coastal observations for SA | Marine services | Other Formats
Station Details ID: 022049 Name: STENHOUSE BAY Lat: -35.28 Lon: 136.94 Height: 42.0 m
Data from the previous 72 hours. | See also: Recent months at Stenhouse Bay
Date/Time
CDT
Temp

°C
Wind Pressure Rain
since 9am
mm
Weather Cloud Vis
km
Sea
Height
m
Swell
Dir
 
Speed
knots
Gust
knots
hPa Trend Height
m
Period
s
Dir
22/10:00am 18.4 SW 11 14 1018.8 - 0.0 - - - - - - -
22/09:30am 18.1 SSW 11 15 1018.5 - 0.0 - - - - - - -
22/09:00am 17.3 SW 10 16 1018.2 - 0.0 - - - - - - -
22/08:30am 16.8 SW 10 15 1018.1 - 0.0 - - - - - - -
22/08:00am 16.4 SW 15 19 1018.1 - 0.0 - - - - - - -
22/07:30am 16.8 SSW 10 14 1017.7 - 0.0 - - - - - - -
22/07:00am 16.4 SSW 8 11 1017.7 - 0.0 - - - - - - -
22/06:30am 16.5 SSW 9 13 1017.4 - 0.0 - - - - - - -
22/06:00am 16.6 SW 7 11 1016.8 - 0.0 - - - - - - -
22/05:30am 17.2 S 9 11 1016.6 - 0.0 - - - - - - -
22/05:00am 17.1 SSW 5 8 1016.7 - 0.0 - - - - - - -
22/04:30am 17.4 SSW 8 11 1016.0 - 0.0 - - - - - - -
22/04:00am 17.5 SSW 9 14 1015.7 - 0.0 - - - - - - -
22/03:30am 17.4 SSW 9 12 1015.5 - 0.0 - - - - - - -
22/03:00am 17.9 SSW 11 15 1015.3 - 0.0 - - - - - - -
22/02:30am 18.5 SW 12 18 1015.6 - 0.0 - - - - - - -
22/02:00am 18.3 WSW 16 22 1015.6 - 0.0 - - - - - - -
22/01:30am 19.9 WSW 13 18 1015.9 - 0.0 - - - - - - -
22/01:00am 21.5 WSW 10 13 1016.2 - 0.0 - - - - - - -
22/12:30am 21.9 SE 9 11 1015.2 - 0.0 - - - - - - -
22/12:00am 23.2 S 8 12 1016.1 - 0.0 - - - - - - -
 
Date/Time
CDT
Temp

°C
Wind Pressure Rain
since 9am
mm
Weather Cloud Vis
km
Sea
Height
m
Swell
Dir
 
Speed
knots
Gust
knots
hPa Trend Height
m
Period
s
Dir
21/11:30pm 22.9 SSE 12 18 1016.2 - 0.0 - - - - - - -
21/11:00pm 23.1 S 10 21 1016.6 - 0.0 - - - - - - -
21/10:30pm 20.6 S 16 22 1017.3 - 0.0 - - - - - - -
21/10:10pm 20.6 S 20 27 1016.6 - 0.0 - - - - - - -
21/10:00pm 19.7 WSW 19 25 1018.0 - 0.0 - - - - - - -
21/09:47pm 23.5 WSW 22 26 1017.3 - 0.0 - - - - - - -
21/09:30pm 25.0 ENE 5 8 1015.8 - 0.0 - - - - - - -
21/09:00pm 25.7 E 6 9 1015.4 - 0.0 - - - - - - -
21/08:30pm 25.3 ENE 6 9 1015.6 - 0.0 - - - - - - -
21/08:00pm 24.8 NE 6 13 1015.4 - 0.0 - - - - - - -
21/07:30pm 25.2 E 5 7 1015.3 - 0.0 - - - - - - -
21/07:00pm 23.8 ENE 5 7 1015.4 - 0.0 - - - - - - -
21/06:30pm 23.9 E 4 6 1015.5 - 0.0 - - - - - - -
21/06:00pm 25.0 ENE 3 4 1015.9 - 0.0 - - - - - - -
21/05:30pm 24.4 ENE 4 6 1015.8 - 0.0 - - - - - - -
21/05:00pm 22.1 ENE 6 8 1015.7 - 0.0 - - - - - - -
21/04:30pm 22.3 E 6 8 1015.8 - 0.0 - - - - - - -
21/04:00pm 22.0 E 6 10 1015.9 - 0.0 - - - - - - -
21/03:30pm 25.9 SSE 4 5 1016.1 - 0.0 - - - - - - -
21/03:00pm 26.2 S 6 8 1016.5 - 0.0 - - - - - - -
21/02:30pm 24.5 S 6 10 1016.9 - 0.0 - - - - - - -
21/02:06pm 22.6 SSW 6 11 1017.2 - 0.0 - - - - - - -
21/02:00pm 28.0 S 3 7 1017.2 - 0.0 - - - - - - -
21/01:30pm 24.5 S 4 7 1017.5 - 0.0 - - - - - - -
21/01:00pm 27.1 SSE 6 9 1017.7 - 0.0 - - - - - - -
21/12:30pm 34.9 N 12 18 1017.9 - 0.0 - - - - - - -
21/12:26pm 33.8 NNE 11 16 1018.0 - 0.0 - - - - - - -
21/12:00pm 27.9 E 5 8 1018.2 - 0.0 - - - - - - -
21/11:30am 27.8 E 6 10 1018.4 - 0.0 - - - - - - -
21/11:00am 24.3 ENE 6 8 1018.6 - 0.0 - - - - - - -
21/10:30am 22.3 ENE 7 9 1018.7 - 0.0 - - - - - - -
21/10:00am 22.8 NE 8 12 1018.6 - 0.0 - - - - - - -
21/09:30am 21.3 NE 7 9 1018.6 - 0.0 - - - - - - -
21/09:00am 22.1 NE 7 10 1018.6 - 0.0 - - - - - - -
21/08:30am 20.9 NE 5 7 1018.6 - 0.0 - - - - - - -
21/08:00am 18.4 NE 6 7 1018.4 - 0.0 - - - - - - -
21/07:30am 18.1 ENE 6 7 1018.3 - 0.0 - - - - - - -
21/07:00am 17.7 ENE 7 8 1017.7 - 0.0 - - - - - - -
21/06:30am 17.6 ENE 8 9 1017.4 - 0.0 - - - - - - -
21/06:00am 16.7 ENE 5 7 1017.3 - 0.0 - - - - - - -
21/05:30am 16.9 ENE 6 9 1017.2 - 0.0 - - - - - - -
21/05:00am 17.1 E 8 11 1017.0 - 0.0 - - - - - - -
21/04:30am 16.9 E 8 11 1017.2 - 0.0 - - - - - - -
21/04:00am 17.1 E 8 11 1017.4 - 0.0 - - - - - - -
21/03:30am 17.1 ENE 9 13 1017.4 - 0.0 - - - - - - -
21/03:00am 17.0 ENE 10 14 1017.6 - 0.0 - - - - - - -
21/02:30am 16.8 E 12 15 1017.9 - 0.0 - - - - - - -
21/02:00am 16.6 ENE 10 13 1018.5 - 0.0 - - - - - - -
21/01:30am 16.7 ENE 10 14 1018.9 - 0.0 - - - - - - -
21/01:00am 16.7 E 10 13 1019.3 - 0.0 - - - - - - -
21/12:30am 16.8 E 9 14 1019.7 - 0.0 - - - - - - -
21/12:00am 16.8 E 10 13 1019.8 - 0.0 - - - - - - -
 
Date/Time
CDT
Temp

°C
Wind Pressure Rain
since 9am
mm
Weather Cloud Vis
km
Sea
Height
m
Swell
Dir
 
Speed
knots
Gust
knots
hPa Trend Height
m
Period
s
Dir
20/11:30pm 16.8 E 11 15 1020.1 - 0.0 - - - - - - -
20/11:00pm 16.9 ENE 11 16 1020.2 - 0.0 - - - - - - -
20/10:30pm 16.9 E 11 15 1020.5 - 0.0 - - - - - - -
20/10:00pm 17.1 E 10 14 1020.8 - 0.0 - - - - - - -
20/09:30pm 17.1 E 13 18 1020.8 - 0.0 - - - - - - -
20/09:00pm 17.1 E 14 18 1020.5 - 0.0 - - - - - - -
20/08:30pm 17.1 E 14 18 1020.4 - 0.0 - - - - - - -
20/08:00pm 17.1 E 11 15 1020.5 - 0.0 - - - - - - -
20/07:30pm 17.2 E 12 16 1020.4 - 0.0 - - - - - - -
20/07:00pm 17.2 E 11 15 1020.3 - 0.0 - - - - - - -
20/06:30pm 17.7 E 12 17 1020.1 - 0.0 - - - - - - -
20/06:00pm 18.1 E 10 14 1020.1 - 0.0 - - - - - - -
20/05:30pm 18.6 E 12 17 1020.2 - 0.0 - - - - - - -
20/05:00pm 19.1 E 12 17 1020.2 - 0.0 - - - - - - -
20/04:30pm 19.0 E 13 17 1020.6 - 0.0 - - - - - - -
20/04:00pm 19.3 E 14 18 1020.9 - 0.0 - - - - - - -
20/03:30pm 19.2 E 15 18 1021.2 - 0.0 - - - - - - -
20/03:00pm 19.4 E 15 22 1021.5 - 0.0 - - - - - - -
20/02:30pm 19.2 E 16 21 1022.0 - 0.0 - - - - - - -
20/02:00pm 19.1 E 17 22 1022.4 - 0.0 - - - - - - -
20/01:30pm 18.7 E 17 21 1022.8 - 0.0 - - - - - - -
20/01:00pm 18.7 E 17 22 1023.1 - 0.0 - - - - - - -
20/12:30pm 18.1 E 16 21 1023.4 - 0.0 - - - - - - -
20/12:00pm 18.1 E 18 23 1023.7 - 0.0 - - - - - - -
20/11:30am 17.8 E 18 23 1024.0 - 0.0 - - - - - - -
20/11:00am 17.8 E 19 24 1024.2 - 0.0 - - - - - - -
20/10:30am 17.1 E 20 25 1024.3 - 0.0 - - - - - - -
20/10:00am 15.9 E 18 25 1024.4 - 0.0 - - - - - - -
20/09:30am 15.9 E 21 27 1024.3 - 0.0 - - - - - - -
20/09:00am 15.4 E 23 28 1024.2 - 0.0 - - - - - - -
20/08:30am 15.4 ESE 22 27 1024.4 - 0.0 - - - - - - -
20/08:00am 15.3 ESE 21 26 1024.1 - 0.0 - - - - - - -
20/07:30am 14.7 E 21 26 1023.8 - 0.0 - - - - - - -
20/07:00am 14.3 ESE 23 28 1023.8 - 0.0 - - - - - - -
20/06:30am 14.3 E 21 27 1023.5 - 0.0 - - - - - - -
20/06:00am 14.3 ESE 23 29 1023.4 - 0.0 - - - - - - -
20/05:30am 14.2 ESE 24 32 1022.9 - 0.0 - - - - - - -
20/05:00am 14.3 ESE 24 33 1023.0 - 0.0 - - - - - - -
20/04:35am 14.3 ESE 24 35 1023.0 - 0.0 - - - - - - -
20/04:30am 14.2 ESE 25 35 1022.8 - 0.0 - - - - - - -
20/04:00am 14.2 ESE 25 33 1022.6 - 0.0 - - - - - - -
20/03:30am 14.3 ESE 26 32 1022.5 - 0.0 - - - - - - -
20/03:00am 14.3 ESE 25 32 1022.7 - 0.0 - - - - - - -
20/02:30am 14.4 ESE 24 30 1023.1 - 0.0 - - - - - - -
20/02:00am 14.2 ESE 24 31 1023.3 - 0.0 - - - - - - -
20/01:30am 14.4 ESE 23 28 1023.5 - 0.0 - - - - - - -
20/01:00am 14.2 ESE 21 29 1023.6 - 0.0 - - - - - - -
20/12:30am 14.2 ESE 24 31 1023.6 - 0.0 - - - - - - -
20/12:00am 14.2 ESE 24 31 1023.8 - 0.0 - - - - - - -
 
Date/Time
CDT
Temp

°C
Wind Pressure Rain
since 9am
mm
Weather Cloud Vis
km
Sea
Height
m
Swell
Dir
 
Speed
knots
Gust
knots
hPa Trend Height
m
Period
s
Dir
19/11:30pm 14.3 ESE 24 30 1023.8 - 0.0 - - - - - - -
19/11:00pm 14.4 ESE 24 30 1023.8 - 0.0 - - - - - - -
19/10:30pm 14.5 ESE 24 31 1023.9 - 0.0 - - - - - - -
19/10:00pm 14.6 ESE 23 29 1023.9 - 0.0 - - - - - - -
19/09:30pm 14.7 ESE 24 31 1023.8 - 0.0 - - - - - - -
19/09:00pm 14.8 ESE 22 28 1023.7 - 0.0 - - - - - - -
19/08:30pm 15.0 SE 24 30 1023.2 - 0.0 - - - - - - -
19/08:00pm 15.3 ESE 24 29 1023.0 - 0.0 - - - - - - -
19/07:30pm 15.6 ESE 19 24 1022.9 - 0.0 - - - - - - -
19/07:00pm 15.7 SE 20 26 1022.5 - 0.0 - - - - - - -
19/06:30pm 16.5 ESE 19 27 1022.2 - 0.0 - - - - - - -
19/06:00pm 17.3 SE 17 25 1022.0 - 0.0 - - - - - - -
19/05:30pm 17.9 SE 17 23 1021.9 - 0.0 - - - - - - -
19/05:00pm 18.3 SSE 18 23 1021.6 - 0.0 - - - - - - -
19/04:30pm 19.0 SSE 15 20 1021.4 - 0.0 - - - - - - -
19/04:00pm 19.2 SSE 16 21 1021.2 - 0.0 - - - - - - -
19/03:30pm 21.7 SE 10 14 1021.0 - 0.0 - - - - - - -
19/03:00pm 21.8 SE 8 11 1020.9 - 0.0 - - - - - - -
19/02:30pm 21.9 SE 9 12 1020.9 - 0.0 - - - - - - -
19/02:00pm 22.1 SSE 6 9 1020.9 - 0.0 - - - - - - -
19/01:30pm 22.2 SSE 8 12 1020.8 - 0.0 - - - - - - -
19/01:00pm 22.4 S 6 8 1020.5 - 0.0 - - - - - - -
19/12:30pm 22.9 S 5 6 1020.7 - 0.0 - - - - - - -
19/12:00pm 22.1 SSW 4 5 1020.7 - 0.0 - - - - - - -
19/11:30am 26.4 WSW 7 12 1020.5 - 0.0 - - - - - - -
19/11:00am 27.1 W 6 11 1020.3 - 0.0 - - - - - - -
19/10:53am 26.1 W 6 8 1020.4 - 0.0 - - - - - - -
19/10:30am 21.0 SW 4 6 1020.5 - 0.0 - - - - - - -

Other Formats:

Comma delimited format used in spreadsheet applications
http://www.bom.gov.au/fwo/IDS60701/IDS60701.95806.axf

JavaScript Object Notation format (JSON) in row-major order
http://www.bom.gov.au/fwo/IDS60701/IDS60701.95806.json